createdAt,value
2017-03-05T00:00:11.257Z,926.5
2017-03-05T00:00:39.216Z,926.51
2017-03-05T00:01:07.486Z,926.53
2017-03-05T00:01:35.680Z,926.55
2017-03-05T00:02:03.899Z,926.55
2017-03-05T00:02:31.971Z,926.58
2017-03-05T00:03:00.098Z,926.6
2017-03-05T00:03:28.349Z,926.61
2017-03-05T00:03:56.479Z,926.64
2017-03-05T00:04:24.608Z,926.64
2017-03-05T00:04:52.894Z,926.64
2017-03-05T00:05:21.183Z,926.63
2017-03-05T00:05:49.461Z,926.64
2017-03-05T00:06:17.571Z,926.65
2017-03-05T00:06:45.592Z,926.67
2017-03-05T00:07:14.380Z,926.65
2017-03-05T00:07:42.713Z,926.65
2017-03-05T00:08:10.814Z,926.67
2017-03-05T00:08:38.934Z,926.65
2017-03-05T00:09:07.123Z,926.65
2017-03-05T00:09:35.228Z,926.67
2017-03-05T00:10:03.346Z,926.67
2017-03-05T00:10:31.380Z,926.67
2017-03-05T00:10:59.564Z,926.67
2017-03-05T00:11:27.728Z,926.66
2017-03-05T00:11:55.887Z,926.68
2017-03-05T00:12:24.025Z,926.68
2017-03-05T00:12:52.350Z,926.67
2017-03-05T00:13:20.498Z,926.69
2017-03-05T00:13:48.773Z,926.67
2017-03-05T00:14:16.796Z,926.67
2017-03-05T00:14:45.033Z,926.67
2017-03-05T00:15:13.106Z,926.67
2017-03-05T00:15:41.378Z,926.69
2017-03-05T00:16:09.499Z,926.68
2017-03-05T00:16:37.777Z,926.71
2017-03-05T00:17:05.981Z,926.68
2017-03-05T00:17:34.131Z,926.72
2017-03-05T00:18:02.738Z,926.71
2017-03-05T00:18:30.909Z,926.69
2017-03-05T00:18:59.048Z,926.68
2017-03-05T00:19:27.300Z,926.7
2017-03-05T00:19:55.508Z,926.71
2017-03-05T00:20:23.840Z,926.73
2017-03-05T00:20:52.087Z,926.71
2017-03-05T00:21:20.372Z,926.73
2017-03-05T00:21:48.702Z,926.71
2017-03-05T00:22:16.798Z,926.73
2017-03-05T00:22:44.954Z,926.71
2017-03-05T00:23:13.240Z,926.69
2017-03-05T00:23:41.496Z,926.69
2017-03-05T00:24:09.629Z,926.71
2017-03-05T00:24:37.860Z,926.73
2017-03-05T00:25:06.134Z,926.7
2017-03-05T00:25:34.366Z,926.71
2017-03-05T00:26:02.547Z,926.76
2017-03-05T00:26:30.794Z,926.71
2017-03-05T00:26:58.997Z,926.68
2017-03-05T00:27:27.013Z,926.72
2017-03-05T00:27:55.301Z,926.73
2017-03-05T00:28:23.398Z,926.73
2017-03-05T00:28:51.610Z,926.67
2017-03-05T00:29:19.671Z,926.69
2017-03-05T00:29:47.864Z,926.73
2017-03-05T00:30:16.022Z,926.67
2017-03-05T00:30:44.168Z,926.68
2017-03-05T00:31:12.454Z,926.66
2017-03-05T00:31:40.540Z,926.67
2017-03-05T00:32:08.721Z,926.7
2017-03-05T00:32:36.942Z,926.71
2017-03-05T00:33:05.099Z,926.71
2017-03-05T00:33:33.213Z,926.69
2017-03-05T00:34:01.429Z,926.63
2017-03-05T00:34:29.635Z,926.66
2017-03-05T00:34:57.702Z,926.7
2017-03-05T00:35:25.863Z,926.67
2017-03-05T00:35:54.121Z,926.7
2017-03-05T00:36:22.301Z,926.7
2017-03-05T00:36:50.302Z,926.7
2017-03-05T00:37:18.483Z,926.7
2017-03-05T00:37:46.597Z,926.74
2017-03-05T00:38:14.887Z,926.72
2017-03-05T00:38:43.134Z,926.72
2017-03-05T00:39:11.212Z,926.72
2017-03-05T00:39:39.339Z,926.73
2017-03-05T00:40:07.509Z,926.71
2017-03-05T00:40:35.650Z,926.69
2017-03-05T00:41:03.655Z,926.71
2017-03-05T00:41:31.886Z,926.69
2017-03-05T00:41:59.998Z,926.71
2017-03-05T00:42:28.099Z,926.74
2017-03-05T00:42:56.359Z,926.67
2017-03-05T00:43:24.582Z,926.68
2017-03-05T00:43:52.594Z,926.65
2017-03-05T00:44:20.862Z,926.65
2017-03-05T00:44:48.951Z,926.64
2017-03-05T00:45:17.158Z,926.65
2017-03-05T00:45:45.388Z,926.65
2017-03-05T00:46:13.494Z,926.65
2017-03-05T00:46:41.631Z,926.62
2017-03-05T00:47:09.735Z,926.58
2017-03-05T00:47:37.953Z,926.6
2017-03-05T00:48:06.289Z,926.59
2017-03-05T00:48:34.468Z,926.58
2017-03-05T00:49:02.684Z,926.57
2017-03-05T00:49:30.966Z,926.58
2017-03-05T00:49:59.223Z,926.6
2017-03-05T00:50:27.315Z,926.57
2017-03-05T00:50:55.595Z,926.56
2017-03-05T00:51:23.865Z,926.53
2017-03-05T00:51:52.031Z,926.61
2017-03-05T00:52:20.138Z,926.59
2017-03-05T00:52:48.452Z,926.59
2017-03-05T00:53:16.548Z,926.61
2017-03-05T00:53:44.632Z,926.61
2017-03-05T00:54:12.640Z,926.65
2017-03-05T00:54:40.691Z,926.63
2017-03-05T00:55:08.843Z,926.63
2017-03-05T00:55:37.041Z,926.62
2017-03-05T00:56:05.240Z,926.62
2017-03-05T00:56:33.302Z,926.61
2017-03-05T00:57:01.416Z,926.6
2017-03-05T00:57:29.678Z,926.57
2017-03-05T00:57:57.769Z,926.62
2017-03-05T00:58:26.135Z,926.6
2017-03-05T00:58:54.357Z,926.56
2017-03-05T00:59:22.438Z,926.57
2017-03-05T00:59:50.750Z,926.59
2017-03-05T01:00:18.947Z,926.54
2017-03-05T01:00:47.046Z,926.57
2017-03-05T01:01:15.306Z,926.54
2017-03-05T01:01:43.607Z,926.56
2017-03-05T01:02:11.792Z,926.55
2017-03-05T01:02:40.138Z,926.51
2017-03-05T01:03:08.365Z,926.56
2017-03-05T01:03:36.640Z,926.52
2017-03-05T01:04:04.709Z,926.52
2017-03-05T01:04:32.945Z,926.52
2017-03-05T01:05:00.991Z,926.51
2017-03-05T01:05:29.097Z,926.49
2017-03-05T01:05:57.177Z,926.49
2017-03-05T01:06:25.248Z,926.5
2017-03-05T01:06:53.443Z,926.47
2017-03-05T01:07:21.763Z,926.48
2017-03-05T01:07:49.841Z,926.49
2017-03-05T01:08:18.145Z,926.47
2017-03-05T01:08:46.223Z,926.48
2017-03-05T01:09:14.525Z,926.5
2017-03-05T01:09:42.643Z,926.47
2017-03-05T01:10:10.846Z,926.52
2017-03-05T01:10:38.944Z,926.49
2017-03-05T01:11:07.017Z,926.46
2017-03-05T01:11:35.172Z,926.49
2017-03-05T01:12:03.442Z,926.45
2017-03-05T01:12:31.713Z,926.42
2017-03-05T01:12:59.851Z,926.43
2017-03-05T01:13:28.253Z,926.44
2017-03-05T01:13:56.568Z,926.44
2017-03-05T01:14:24.845Z,926.42
2017-03-05T01:14:53.047Z,926.4
2017-03-05T01:15:21.348Z,926.42
2017-03-05T01:15:49.501Z,926.43
2017-03-05T01:16:17.768Z,926.42
2017-03-05T01:16:46.021Z,926.44
2017-03-05T01:17:14.121Z,926.43
2017-03-05T01:17:42.315Z,926.43
2017-03-05T01:18:10.642Z,926.39
2017-03-05T01:18:38.604Z,926.37
2017-03-05T01:19:06.797Z,926.4
2017-03-05T01:19:34.877Z,926.4
2017-03-05T01:20:03.167Z,926.41
2017-03-05T01:20:31.333Z,926.43
2017-03-05T01:20:59.623Z,926.4
2017-03-05T01:21:27.729Z,926.4
2017-03-05T01:21:55.793Z,926.38
2017-03-05T01:22:24.312Z,926.41
2017-03-05T01:22:52.589Z,926.38
2017-03-05T01:23:20.786Z,926.41
2017-03-05T01:23:48.999Z,926.44
2017-03-05T01:24:17.276Z,926.42
2017-03-05T01:24:45.503Z,926.4
2017-03-05T01:25:13.710Z,926.4
2017-03-05T01:25:41.654Z,926.46
2017-03-05T01:26:09.811Z,926.45
2017-03-05T01:26:38.034Z,926.48
2017-03-05T01:27:06.148Z,926.47
2017-03-05T01:27:34.309Z,926.46
2017-03-05T01:28:02.586Z,926.46
2017-03-05T01:28:30.779Z,926.48
2017-03-05T01:28:58.911Z,926.49
2017-03-05T01:29:27.133Z,926.49
2017-03-05T01:29:55.325Z,926.48
2017-03-05T01:30:24.370Z,926.45
2017-03-05T01:30:52.459Z,926.47
2017-03-05T01:31:20.746Z,926.48
2017-03-05T01:31:49.025Z,926.48
2017-03-05T01:32:17.303Z,926.47
2017-03-05T01:32:45.602Z,926.46
2017-03-05T01:33:13.859Z,926.48
2017-03-05T01:33:42.054Z,926.5
2017-03-05T01:34:10.291Z,926.46
2017-03-05T01:34:38.389Z,926.45
2017-03-05T01:35:06.601Z,926.46
2017-03-05T01:35:34.735Z,926.45
2017-03-05T01:36:03.009Z,926.45
2017-03-05T01:36:31.277Z,926.43
2017-03-05T01:36:59.423Z,926.44
2017-03-05T01:37:27.694Z,926.42
2017-03-05T01:37:55.914Z,926.45
2017-03-05T01:38:24.112Z,926.44
2017-03-05T01:38:52.212Z,926.41
2017-03-05T01:39:20.426Z,926.46
2017-03-05T01:39:48.600Z,926.45
2017-03-05T01:40:16.693Z,926.44
2017-03-05T01:40:44.918Z,926.43
2017-03-05T01:41:13.110Z,926.49
2017-03-05T01:41:41.306Z,926.43
2017-03-05T01:42:09.434Z,926.43
2017-03-05T01:42:37.640Z,926.47
2017-03-05T01:43:05.892Z,926.47
2017-03-05T01:43:34.065Z,926.46
2017-03-05T01:44:02.396Z,926.44
2017-03-05T01:44:30.703Z,926.44
2017-03-05T01:44:58.935Z,926.44
2017-03-05T01:45:27.147Z,926.46
2017-03-05T01:45:55.368Z,926.41
2017-03-05T01:46:23.525Z,926.43
2017-03-05T01:46:51.677Z,926.46
2017-03-05T01:47:19.850Z,926.45
2017-03-05T01:47:47.978Z,926.44
2017-03-05T01:48:16.216Z,926.43
2017-03-05T01:48:44.502Z,926.44
2017-03-05T01:49:12.744Z,926.47
2017-03-05T01:49:41.037Z,926.45
2017-03-05T01:50:09.278Z,926.49
2017-03-05T01:50:37.605Z,926.48
2017-03-05T01:51:05.670Z,926.47
2017-03-05T01:51:33.776Z,926.44
2017-03-05T01:52:01.981Z,926.51
2017-03-05T01:52:30.199Z,926.49
2017-03-05T01:52:58.396Z,926.47
2017-03-05T01:53:26.533Z,926.5
2017-03-05T01:53:54.617Z,926.52
2017-03-05T01:54:22.807Z,926.53
2017-03-05T01:54:50.937Z,926.5
2017-03-05T01:55:19.195Z,926.56
2017-03-05T01:55:47.265Z,926.53
2017-03-05T01:56:15.301Z,926.55
2017-03-05T01:56:43.377Z,926.54
2017-03-05T01:57:11.774Z,926.5
2017-03-05T01:57:40.015Z,926.5
2017-03-05T01:58:08.207Z,926.55
2017-03-05T01:58:36.533Z,926.55
2017-03-05T01:59:04.760Z,926.55
2017-03-05T01:59:32.989Z,926.54
2017-03-05T02:00:01.278Z,926.59
2017-03-05T02:00:29.500Z,926.55
2017-03-05T02:00:57.767Z,926.55
2017-03-05T02:01:26.016Z,926.58
2017-03-05T02:01:54.001Z,926.58
2017-03-05T02:02:22.134Z,926.58
2017-03-05T02:02:50.254Z,926.55
2017-03-05T02:03:18.563Z,926.56
2017-03-05T02:03:46.653Z,926.56
2017-03-05T02:04:14.818Z,926.57
2017-03-05T02:04:43.084Z,926.54
2017-03-05T02:05:11.393Z,926.55
2017-03-05T02:05:39.573Z,926.54
2017-03-05T02:06:07.590Z,926.57
2017-03-05T02:06:35.586Z,926.52
2017-03-05T02:07:03.689Z,926.53
2017-03-05T02:07:31.905Z,926.59
2017-03-05T02:08:00.108Z,926.58
2017-03-05T02:08:28.335Z,926.55
2017-03-05T02:08:56.631Z,926.59
2017-03-05T02:09:24.713Z,926.53
2017-03-05T02:09:52.876Z,926.54
2017-03-05T02:10:20.805Z,926.52
2017-03-05T02:10:49.039Z,926.54
2017-03-05T02:11:17.174Z,926.51
2017-03-05T02:11:46.130Z,926.52
2017-03-05T02:12:14.403Z,926.47
2017-03-05T02:12:42.526Z,926.46
2017-03-05T02:13:10.754Z,926.48
2017-03-05T02:13:38.855Z,926.46
2017-03-05T02:14:07.031Z,926.46
2017-03-05T02:14:35.014Z,926.45
2017-03-05T02:15:03.210Z,926.46
2017-03-05T02:15:31.335Z,926.47
2017-03-05T02:15:59.372Z,926.47
2017-03-05T02:16:27.537Z,926.45
2017-03-05T02:16:55.592Z,926.48
2017-03-05T02:17:23.502Z,926.5
2017-03-05T02:17:51.599Z,926.5
2017-03-05T02:18:19.649Z,926.52
2017-03-05T02:18:47.992Z,926.5
2017-03-05T02:19:16.192Z,926.48
2017-03-05T02:19:44.490Z,926.49
2017-03-05T02:20:12.599Z,926.49
2017-03-05T02:20:40.748Z,926.51
2017-03-05T02:21:09.018Z,926.51
2017-03-05T02:21:37.114Z,926.48
2017-03-05T02:22:05.383Z,926.49
2017-03-05T02:22:33.551Z,926.47
2017-03-05T02:23:01.869Z,926.48
2017-03-05T02:23:30.042Z,926.45
2017-03-05T02:23:58.490Z,926.47
2017-03-05T02:24:26.659Z,926.46
2017-03-05T02:24:55.160Z,926.47
2017-03-05T02:25:23.332Z,926.5
2017-03-05T02:25:51.537Z,926.49
2017-03-05T02:26:19.799Z,926.51
2017-03-05T02:26:47.735Z,926.5
2017-03-05T02:27:15.805Z,926.5
2017-03-05T02:27:43.986Z,926.5
2017-03-05T02:28:12.257Z,926.52
2017-03-05T02:28:40.307Z,926.52
2017-03-05T02:29:08.627Z,926.52
2017-03-05T02:29:36.797Z,926.54
2017-03-05T02:30:04.975Z,926.5
2017-03-05T02:30:33.175Z,926.53
2017-03-05T02:31:01.344Z,926.53
2017-03-05T02:31:29.508Z,926.53
2017-03-05T02:31:57.659Z,926.51
2017-03-05T02:32:25.726Z,926.51
2017-03-05T02:32:53.770Z,926.49
2017-03-05T02:33:21.894Z,926.53
2017-03-05T02:33:50.180Z,926.51
2017-03-05T02:34:18.262Z,926.54
2017-03-05T02:34:46.538Z,926.51
2017-03-05T02:35:14.692Z,926.51
2017-03-05T02:35:42.812Z,926.54
2017-03-05T02:36:10.757Z,926.55
2017-03-05T02:36:38.878Z,926.55
2017-03-05T02:37:06.922Z,926.53
2017-03-05T02:37:35.112Z,926.56
2017-03-05T02:38:03.214Z,926.56
2017-03-05T02:38:31.310Z,926.56
2017-03-05T02:38:59.519Z,926.58
2017-03-05T02:39:27.792Z,926.57
2017-03-05T02:39:56.144Z,926.57
2017-03-05T02:40:24.416Z,926.57
2017-03-05T02:40:52.548Z,926.57
2017-03-05T02:41:20.737Z,926.58
2017-03-05T02:41:48.983Z,926.56
2017-03-05T02:42:17.149Z,926.61
2017-03-05T02:42:45.328Z,926.54
2017-03-05T02:43:13.539Z,926.57
2017-03-05T02:43:41.684Z,926.58
2017-03-05T02:44:09.992Z,926.61
2017-03-05T02:44:38.276Z,926.58
2017-03-05T02:45:06.352Z,926.59
2017-03-05T02:45:34.503Z,926.56
2017-03-05T02:46:02.770Z,926.55
2017-03-05T02:46:30.921Z,926.61
2017-03-05T02:46:58.983Z,926.57
2017-03-05T02:47:27.276Z,926.55
2017-03-05T02:47:55.931Z,926.56
2017-03-05T02:48:24.046Z,926.6
2017-03-05T02:48:52.173Z,926.6
2017-03-05T02:49:20.351Z,926.61
2017-03-05T02:49:48.574Z,926.58
2017-03-05T02:50:16.753Z,926.59
2017-03-05T02:50:44.995Z,926.62
2017-03-05T02:51:13.101Z,926.58
2017-03-05T02:51:41.423Z,926.59
2017-03-05T02:52:09.679Z,926.57
2017-03-05T02:52:37.963Z,926.58
2017-03-05T02:53:06.224Z,926.57
2017-03-05T02:53:34.507Z,926.58
2017-03-05T02:54:02.794Z,926.55
2017-03-05T02:54:31.051Z,926.54
2017-03-05T02:54:59.232Z,926.57
2017-03-05T02:55:27.523Z,926.54
2017-03-05T02:55:55.699Z,926.55
2017-03-05T02:56:23.621Z,926.56
2017-03-05T02:56:51.716Z,926.59
2017-03-05T02:57:19.904Z,926.56
2017-03-05T02:57:48.051Z,926.55
2017-03-05T02:58:16.200Z,926.52
2017-03-05T03:01:41.524Z,926.51
2017-03-05T03:02:09.824Z,926.5
2017-03-05T03:02:37.908Z,926.51
2017-03-05T03:03:06.208Z,926.51
2017-03-05T03:03:34.528Z,926.52
2017-03-05T03:04:02.563Z,926.48
2017-03-05T03:04:30.821Z,926.51
2017-03-05T03:04:59.301Z,926.48
2017-03-05T03:05:27.475Z,926.52
2017-03-05T03:05:55.619Z,926.51
2017-03-05T03:06:23.914Z,926.48
2017-03-05T03:06:52.200Z,926.52
2017-03-05T03:07:20.288Z,926.52
2017-03-05T03:07:48.513Z,926.52
2017-03-05T03:08:16.699Z,926.5
2017-03-05T03:08:45.052Z,926.53
2017-03-05T03:09:13.268Z,926.5
2017-03-05T03:09:41.521Z,926.51
2017-03-05T03:10:09.865Z,926.51
2017-03-05T03:10:37.873Z,926.53
2017-03-05T03:11:06.146Z,926.52
2017-03-05T03:11:34.460Z,926.51
2017-03-05T03:12:02.674Z,926.52
2017-03-05T03:12:30.848Z,926.51
2017-03-05T03:12:59.102Z,926.51
2017-03-05T03:13:27.251Z,926.55
2017-03-05T03:13:55.445Z,926.52
2017-03-05T03:14:23.505Z,926.54
2017-03-05T03:14:51.799Z,926.53
2017-03-05T03:15:20.046Z,926.5
2017-03-05T03:15:48.276Z,926.52
2017-03-05T03:16:16.361Z,926.53
2017-03-05T03:16:44.532Z,926.5
2017-03-05T03:17:12.710Z,926.5
2017-03-05T03:17:40.812Z,926.5
2017-03-05T03:18:08.823Z,926.51
2017-03-05T03:18:36.977Z,926.54
2017-03-05T03:19:05.020Z,926.51
2017-03-05T03:19:33.691Z,926.51
2017-03-05T03:20:01.962Z,926.46
2017-03-05T03:20:30.176Z,926.49
2017-03-05T03:20:58.435Z,926.48
2017-03-05T03:21:26.569Z,926.49
2017-03-05T03:21:54.840Z,926.47
2017-03-05T03:22:23.077Z,926.44
2017-03-05T03:22:51.254Z,926.48
2017-03-05T03:23:19.500Z,926.45
2017-03-05T03:23:47.753Z,926.49
2017-03-05T03:24:15.864Z,926.51
2017-03-05T03:24:43.881Z,926.47
2017-03-05T03:25:12.080Z,926.47
2017-03-05T03:25:40.326Z,926.49
2017-03-05T03:26:08.394Z,926.45
2017-03-05T03:26:36.713Z,926.44
2017-03-05T03:27:04.894Z,926.43
2017-03-05T03:27:33.045Z,926.46
2017-03-05T03:28:00.973Z,926.47
2017-03-05T03:28:29.185Z,926.45
2017-03-05T03:28:57.299Z,926.46
2017-03-05T03:29:25.314Z,926.45
2017-03-05T03:29:53.491Z,926.45
2017-03-05T03:30:21.683Z,926.4
2017-03-05T03:30:49.771Z,926.41
2017-03-05T03:31:17.885Z,926.46
2017-03-05T03:31:46.164Z,926.46
2017-03-05T03:32:14.282Z,926.47
2017-03-05T03:32:42.489Z,926.42
2017-03-05T03:33:10.765Z,926.45
2017-03-05T03:33:39.045Z,926.45
2017-03-05T03:34:07.247Z,926.46
2017-03-05T03:34:35.522Z,926.44
2017-03-05T03:35:03.815Z,926.33
2017-03-05T03:35:32.130Z,926.44
2017-03-05T03:36:00.360Z,926.42
2017-03-05T03:36:28.502Z,926.42
2017-03-05T03:36:56.634Z,926.44
2017-03-05T03:37:24.838Z,926.41
2017-03-05T03:37:52.968Z,926.4
2017-03-05T03:38:21.224Z,926.46
2017-03-05T03:38:49.316Z,926.44
2017-03-05T03:39:17.304Z,926.41
2017-03-05T03:39:45.434Z,926.45
2017-03-05T03:40:13.738Z,926.47
2017-03-05T03:40:41.840Z,926.47
2017-03-05T03:41:10.077Z,926.47
2017-03-05T03:41:38.146Z,926.43
2017-03-05T03:42:06.155Z,926.43
2017-03-05T03:42:34.268Z,926.44
2017-03-05T03:43:02.242Z,926.43
2017-03-05T03:43:30.463Z,926.41
2017-03-05T03:43:58.485Z,926.41
2017-03-05T03:44:26.621Z,926.4
2017-03-05T03:44:54.723Z,926.43
2017-03-05T03:45:22.887Z,926.39
2017-03-05T03:45:51.094Z,926.37
2017-03-05T03:46:19.247Z,926.32
2017-03-05T03:46:47.392Z,926.38
2017-03-05T03:47:15.503Z,926.39
2017-03-05T03:47:43.598Z,926.37
2017-03-05T03:48:11.683Z,926.38
2017-03-05T03:48:39.932Z,926.36
2017-03-05T03:49:08.089Z,926.37
2017-03-05T03:49:36.040Z,926.37
2017-03-05T03:50:04.165Z,926.32
2017-03-05T03:50:32.346Z,926.34
2017-03-05T03:51:00.359Z,926.36
2017-03-05T03:51:28.696Z,926.37
2017-03-05T03:51:56.773Z,926.33
2017-03-05T03:52:24.795Z,926.37
2017-03-05T03:52:52.955Z,926.39
2017-03-05T03:53:21.229Z,926.38
2017-03-05T03:53:49.314Z,926.42
2017-03-05T03:54:17.430Z,926.33
2017-03-05T03:54:45.638Z,926.3
2017-03-05T03:55:13.917Z,926.35
2017-03-05T03:55:42.096Z,926.35
2017-03-05T03:56:10.244Z,926.31
2017-03-05T03:56:38.546Z,926.3
2017-03-05T03:57:06.729Z,926.32
2017-03-05T03:57:34.959Z,926.28
2017-03-05T03:58:03.184Z,926.25
2017-03-05T03:58:31.349Z,926.23
2017-03-05T03:58:59.590Z,926.22
2017-03-05T03:59:27.734Z,926.22
2017-03-05T03:59:55.885Z,926.16
2017-03-05T04:00:24.078Z,926.16
2017-03-05T04:00:52.144Z,926.17
2017-03-05T04:01:20.346Z,926.14
2017-03-05T04:01:48.555Z,926.14
2017-03-05T04:02:16.815Z,926.12
2017-03-05T04:02:45.032Z,926.14
2017-03-05T04:03:13.280Z,926.14
2017-03-05T04:03:41.431Z,926.08
2017-03-05T04:04:09.542Z,926.07
2017-03-05T04:04:37.723Z,926.1
2017-03-05T04:05:05.959Z,926.07
2017-03-05T04:05:34.091Z,926.1
2017-03-05T04:06:02.278Z,926.08
2017-03-05T04:06:30.455Z,926.06
2017-03-05T04:06:58.734Z,926.06
2017-03-05T04:07:26.927Z,926.04
2017-03-05T04:07:54.997Z,926.02
2017-03-05T04:08:23.219Z,926.04
2017-03-05T04:08:51.489Z,926.01
2017-03-05T04:09:19.746Z,926
2017-03-05T04:09:47.919Z,926
2017-03-05T04:10:16.159Z,925.97
2017-03-05T04:10:44.446Z,925.97
2017-03-05T04:11:12.626Z,925.93
2017-03-05T04:11:40.540Z,925.97
2017-03-05T04:12:08.793Z,925.91
2017-03-05T04:12:36.885Z,925.94
2017-03-05T04:13:05.176Z,925.93
2017-03-05T04:13:33.376Z,925.89
2017-03-05T04:14:01.512Z,925.95
2017-03-05T04:14:29.582Z,925.93
2017-03-05T04:14:57.830Z,925.93
2017-03-05T04:15:26.060Z,925.92
2017-03-05T04:15:54.384Z,925.94
2017-03-05T04:16:22.577Z,925.94
2017-03-05T04:16:50.592Z,925.9
2017-03-05T04:17:18.810Z,925.91
2017-03-05T04:17:47.163Z,925.91
2017-03-05T04:18:15.619Z,925.9
2017-03-05T04:18:43.795Z,925.9
2017-03-05T04:19:11.980Z,925.84
2017-03-05T04:19:40.146Z,925.89
2017-03-05T04:20:08.228Z,925.93
2017-03-05T04:20:36.602Z,925.88
2017-03-05T04:21:04.696Z,925.86
2017-03-05T04:21:32.999Z,925.91
2017-03-05T04:22:01.163Z,925.88
2017-03-05T04:22:29.143Z,925.84
2017-03-05T04:22:57.432Z,925.86
2017-03-05T04:23:25.592Z,925.86
2017-03-05T04:23:53.665Z,925.85
2017-03-05T04:24:21.701Z,925.78
2017-03-05T04:24:49.878Z,925.85
2017-03-05T04:25:17.976Z,925.82
2017-03-05T04:25:46.222Z,925.87
2017-03-05T04:26:14.479Z,925.85
2017-03-05T04:26:42.568Z,925.83
2017-03-05T04:27:10.788Z,925.85
2017-03-05T04:27:38.881Z,925.81
2017-03-05T04:28:06.782Z,925.83
2017-03-05T04:28:34.794Z,925.81
2017-03-05T04:29:02.884Z,925.83
2017-03-05T04:29:31.060Z,925.83
2017-03-05T04:29:59.215Z,925.84
2017-03-05T04:30:27.437Z,925.88
2017-03-05T04:30:55.670Z,925.81
2017-03-05T04:31:23.974Z,925.83
2017-03-05T04:31:52.058Z,925.82
2017-03-05T04:32:20.300Z,925.84
2017-03-05T04:32:48.422Z,925.84
2017-03-05T04:33:16.538Z,925.81
2017-03-05T04:33:44.631Z,925.8
2017-03-05T04:34:12.772Z,925.79
2017-03-05T04:34:41.039Z,925.76
2017-03-05T04:35:09.274Z,925.75
2017-03-05T04:35:37.527Z,925.77
2017-03-05T04:36:05.797Z,925.74
2017-03-05T04:36:33.956Z,925.72
2017-03-05T04:37:02.268Z,925.74
2017-03-05T04:37:30.410Z,925.74
2017-03-05T04:37:58.737Z,925.74
2017-03-05T04:38:26.986Z,925.74
2017-03-05T04:38:55.178Z,925.74
2017-03-05T04:39:23.331Z,925.75
2017-03-05T04:39:51.559Z,925.76
2017-03-05T04:40:19.750Z,925.77
2017-03-05T04:40:48.064Z,925.76
2017-03-05T04:41:16.202Z,925.76
2017-03-05T04:41:44.386Z,925.73
2017-03-05T04:42:12.394Z,925.74
2017-03-05T04:42:40.699Z,925.75
2017-03-05T04:43:08.908Z,925.79
2017-03-05T04:43:37.208Z,925.77
2017-03-05T04:44:05.341Z,925.78
2017-03-05T04:44:33.471Z,925.79
2017-03-05T04:45:01.654Z,925.8
2017-03-05T04:45:29.933Z,925.79
2017-03-05T04:45:58.234Z,925.82
2017-03-05T04:46:26.507Z,925.82
2017-03-05T04:46:54.625Z,925.86
2017-03-05T04:47:22.556Z,925.85
2017-03-05T04:47:50.860Z,925.86
2017-03-05T04:48:19.066Z,925.84
2017-03-05T04:48:47.267Z,925.8
2017-03-05T04:49:15.420Z,925.81
2017-03-05T04:49:43.537Z,925.77
2017-03-05T04:50:11.750Z,925.79
2017-03-05T04:50:39.970Z,925.78
2017-03-05T04:51:08.274Z,925.72
2017-03-05T04:51:36.323Z,925.71
2017-03-05T04:52:04.662Z,925.68
2017-03-05T04:52:32.833Z,925.73
2017-03-05T04:53:00.916Z,925.71
2017-03-05T04:53:29.092Z,925.69
2017-03-05T04:53:57.196Z,925.66
2017-03-05T04:54:25.487Z,925.68
2017-03-05T04:54:53.794Z,925.66
2017-03-05T04:55:21.898Z,925.71
2017-03-05T04:55:50.028Z,925.68
2017-03-05T04:56:18.146Z,925.69
2017-03-05T04:56:46.441Z,925.67
2017-03-05T04:57:14.479Z,925.67
2017-03-05T04:57:42.800Z,925.67
2017-03-05T04:58:10.871Z,925.66
2017-03-05T04:58:39.164Z,925.66
2017-03-05T04:59:07.273Z,925.63
2017-03-05T04:59:35.484Z,925.66
2017-03-05T05:00:03.743Z,925.66
2017-03-05T05:00:31.792Z,925.62
2017-03-05T05:01:00.170Z,925.62
2017-03-05T05:01:28.469Z,925.59
2017-03-05T05:01:56.696Z,925.63
2017-03-05T05:02:24.864Z,925.65
2017-03-05T05:02:52.973Z,925.66
2017-03-05T05:03:21.246Z,925.68
2017-03-05T05:03:49.430Z,925.67
2017-03-05T05:04:17.584Z,925.68
2017-03-05T05:04:45.782Z,925.69
2017-03-05T05:05:14.094Z,925.71
2017-03-05T05:05:42.239Z,925.68
2017-03-05T05:06:10.402Z,925.69
2017-03-05T05:06:38.493Z,925.68
2017-03-05T05:07:06.695Z,925.68
2017-03-05T05:07:34.953Z,925.71
2017-03-05T05:08:03.155Z,925.71
2017-03-05T05:08:31.450Z,925.68
2017-03-05T05:08:59.556Z,925.68
2017-03-05T05:09:27.776Z,925.7
2017-03-05T05:09:55.784Z,925.7
2017-03-05T05:10:23.906Z,925.66
2017-03-05T05:10:52.112Z,925.66
2017-03-05T05:11:20.357Z,925.64
2017-03-05T05:11:48.604Z,925.66
2017-03-05T05:12:17.099Z,925.68
2017-03-05T05:12:45.175Z,925.69
2017-03-05T05:13:13.305Z,925.65
2017-03-05T05:13:41.416Z,925.64
2017-03-05T05:14:09.641Z,925.64
2017-03-05T05:14:37.910Z,925.67
2017-03-05T05:15:05.816Z,925.68
2017-03-05T05:15:33.923Z,925.63
2017-03-05T05:16:02.045Z,925.65
2017-03-05T05:16:30.230Z,925.62
2017-03-05T05:16:58.368Z,925.61
2017-03-05T05:17:26.435Z,925.62
2017-03-05T05:17:54.655Z,925.59
2017-03-05T05:18:22.855Z,925.6
2017-03-05T05:18:51.001Z,925.59
2017-03-05T05:19:19.053Z,925.57
2017-03-05T05:19:47.196Z,925.52
2017-03-05T05:20:15.454Z,925.59
2017-03-05T05:20:43.519Z,925.55
2017-03-05T05:21:11.807Z,925.52
2017-03-05T05:21:39.914Z,925.53
2017-03-05T05:22:08.093Z,925.51
2017-03-05T05:22:36.283Z,925.47
2017-03-05T05:23:04.386Z,925.52
2017-03-05T05:23:32.649Z,925.48
2017-03-05T05:24:00.860Z,925.48
2017-03-05T05:24:29.115Z,925.45
2017-03-05T05:24:57.300Z,925.47
2017-03-05T05:25:25.449Z,925.46
2017-03-05T05:25:53.679Z,925.44
2017-03-05T05:26:21.975Z,925.41
2017-03-05T05:26:50.053Z,925.46
2017-03-05T05:27:18.044Z,925.42
2017-03-05T05:27:46.304Z,925.41
2017-03-05T05:28:14.504Z,925.42
2017-03-05T05:28:42.751Z,925.4
2017-03-05T05:29:10.589Z,925.39
2017-03-05T05:29:38.672Z,925.42
2017-03-05T05:30:06.876Z,925.39
2017-03-05T05:30:35.203Z,925.4
2017-03-05T05:31:03.307Z,925.34
2017-03-05T05:31:31.426Z,925.36
2017-03-05T05:31:59.665Z,925.4
2017-03-05T05:32:27.856Z,925.37
2017-03-05T05:32:56.083Z,925.38
2017-03-05T05:33:24.097Z,925.36
2017-03-05T05:33:52.292Z,925.38
2017-03-05T05:34:20.407Z,925.37
2017-03-05T05:34:48.656Z,925.36
2017-03-05T05:35:16.752Z,925.37
2017-03-05T05:35:45.011Z,925.35
2017-03-05T05:36:13.276Z,925.35
2017-03-05T05:36:41.542Z,925.37
2017-03-05T05:37:09.781Z,925.33
2017-03-05T05:37:38.104Z,925.32
2017-03-05T05:38:06.402Z,925.34
2017-03-05T05:38:34.631Z,925.34
2017-03-05T05:39:02.804Z,925.34
2017-03-05T05:39:30.972Z,925.34
2017-03-05T05:39:59.242Z,925.36
2017-03-05T05:40:27.442Z,925.29
2017-03-05T05:40:55.597Z,925.35
2017-03-05T05:41:23.783Z,925.35
2017-03-05T05:41:51.908Z,925.3
2017-03-05T05:42:20.096Z,925.31
2017-03-05T05:42:48.409Z,925.32
2017-03-05T05:43:16.609Z,925.31
2017-03-05T05:43:44.743Z,925.29
2017-03-05T05:44:12.981Z,925.32
2017-03-05T05:44:41.193Z,925.29
2017-03-05T05:45:09.515Z,925.28
2017-03-05T05:45:37.817Z,925.28
2017-03-05T05:46:06.007Z,925.3
2017-03-05T05:46:34.183Z,925.26
2017-03-05T05:47:02.486Z,925.28
2017-03-05T05:47:30.599Z,925.26
2017-03-05T05:47:58.866Z,925.25
2017-03-05T05:48:26.814Z,925.28
2017-03-05T05:48:55.041Z,925.26
2017-03-05T05:49:23.421Z,925.18
2017-03-05T05:49:51.662Z,925.27
2017-03-05T05:50:19.885Z,925.2
2017-03-05T05:50:47.963Z,925.2
2017-03-05T05:51:16.147Z,925.18
2017-03-05T05:51:44.591Z,925.21
2017-03-05T05:52:12.780Z,925.21
2017-03-05T05:52:40.885Z,925.23
2017-03-05T05:53:09.194Z,925.22
2017-03-05T05:53:37.330Z,925.18
2017-03-05T05:54:05.644Z,925.22
2017-03-05T05:54:34.003Z,925.18
2017-03-05T05:55:02.209Z,925.19
2017-03-05T05:55:30.438Z,925.21